createdAt,value
2023-01-04T00:00:42.559Z,1.53
2023-01-04T00:03:09.354Z,1.52
2023-01-04T00:05:36.145Z,1.45
2023-01-04T00:08:03.015Z,1.39
2023-01-04T00:10:29.641Z,1.38
2023-01-04T00:12:56.296Z,1.35
2023-01-04T00:15:25.455Z,1.35
2023-01-04T00:17:52.421Z,1.32
2023-01-04T00:20:19.230Z,1.26
2023-01-04T00:22:45.857Z,1.24
2023-01-04T00:25:12.645Z,1.23
2023-01-04T00:27:39.507Z,1.23
2023-01-04T00:30:06.525Z,1.31
2023-01-04T00:32:33.121Z,1.38
2023-01-04T00:34:59.787Z,1.28
2023-01-04T00:37:26.465Z,1.25
2023-01-04T00:39:53.779Z,1.34
2023-01-04T00:42:21.289Z,1.29
2023-01-04T00:44:47.859Z,1.24
2023-01-04T00:47:14.477Z,1.25
2023-01-04T00:49:41.163Z,1.29
2023-01-04T00:52:08.260Z,1.26
2023-01-04T00:54:37.200Z,1.37
2023-01-04T00:57:05.357Z,1.39
2023-01-04T00:59:32.023Z,1.33
2023-01-04T01:01:58.779Z,1.36
2023-01-04T01:04:25.778Z,1.35
2023-01-04T01:06:52.996Z,1.42
2023-01-04T01:09:23.030Z,1.52
2023-01-04T01:11:53.893Z,1.60
2023-01-04T01:14:23.409Z,1.55
2023-01-04T01:16:55.777Z,1.52
2023-01-04T01:19:23.071Z,1.54
2023-01-04T01:21:49.766Z,1.55
2023-01-04T01:24:18.650Z,1.54
2023-01-04T01:26:45.788Z,1.51
2023-01-04T01:29:12.452Z,1.48
2023-01-04T01:31:40.536Z,1.48
2023-01-04T01:34:07.297Z,1.45
2023-01-04T01:36:33.903Z,1.52
2023-01-04T01:39:00.645Z,1.51
2023-01-04T01:41:29.374Z,1.51
2023-01-04T01:43:59.581Z,1.50
2023-01-04T01:46:29.922Z,1.39
2023-01-04T01:49:01.034Z,1.35
2023-01-04T01:51:28.316Z,1.34
2023-01-04T01:54:13.763Z,1.27
2023-01-04T01:56:42.269Z,1.24
2023-01-04T01:59:10.144Z,1.30
2023-01-04T02:01:36.948Z,1.20
2023-01-04T02:04:05.292Z,1.23
2023-01-04T02:06:35.343Z,1.31
2023-01-04T02:09:03.298Z,1.27
2023-01-04T02:11:30.049Z,1.27
2023-01-04T02:14:17.489Z,1.25
2023-01-04T02:16:56.594Z,1.24
2023-01-04T02:19:57.568Z,1.18
2023-01-04T02:22:49.948Z,1.12
2023-01-04T02:25:34.877Z,1.22
2023-01-04T02:28:18.133Z,1.34
2023-01-04T02:30:44.664Z,1.33
2023-01-04T02:33:28.676Z,1.42
2023-01-04T02:36:08.623Z,1.38
2023-01-04T02:38:48.070Z,1.46
2023-01-04T02:41:14.664Z,1.42
2023-01-04T02:44:17.577Z,1.48
2023-01-04T02:46:48.586Z,1.42
2023-01-04T02:49:33.800Z,1.38
2023-01-04T02:52:00.434Z,1.49
2023-01-04T02:54:32.274Z,1.56
2023-01-04T02:57:22.630Z,1.73
2023-01-04T03:00:00.854Z,1.67
2023-01-04T03:02:54.543Z,1.59
2023-01-04T03:05:59.103Z,1.62
2023-01-04T03:08:43.353Z,1.51
2023-01-04T03:11:33.089Z,1.47
2023-01-04T03:14:32.112Z,1.42
2023-01-04T03:16:51.694Z,1.42
2023-01-04T03:19:38.382Z,1.46
2023-01-04T03:22:26.396Z,1.40
2023-01-04T03:25:12.606Z,1.37
2023-01-04T03:27:59.741Z,1.26
2023-01-04T03:30:46.519Z,1.27
2023-01-04T03:33:32.332Z,1.16
2023-01-04T03:36:19.547Z,1.12
2023-01-04T03:39:12.944Z,1.04
2023-01-04T03:42:07.828Z,1.14
2023-01-04T03:45:10.069Z,1.05
2023-01-04T03:48:09.992Z,0.98
2023-01-04T03:50:41.388Z,0.95
2023-01-04T03:53:09.209Z,0.95
2023-01-04T03:55:37.593Z,0.97
2023-01-04T03:58:04.219Z,1.01
2023-01-04T04:00:30.997Z,1.02
2023-01-04T04:03:07.300Z,0.96
2023-01-04T04:05:55.907Z,1.08
2023-01-04T04:08:31.538Z,1.15
2023-01-04T04:11:20.123Z,1.21
2023-01-04T04:13:47.877Z,1.11
2023-01-04T04:16:14.721Z,1.12
2023-01-04T04:18:41.460Z,1.18
2023-01-04T04:21:08.166Z,1.25
2023-01-04T04:23:34.766Z,1.21
2023-01-04T04:26:01.377Z,1.22
2023-01-04T04:28:28.033Z,1.27
2023-01-04T04:30:54.633Z,1.53
2023-01-04T04:33:21.235Z,1.56
2023-01-04T04:35:52.424Z,1.42
2023-01-04T04:38:19.611Z,1.47
2023-01-04T04:41:05.633Z,1.57
2023-01-04T04:43:35.371Z,1.57
2023-01-04T04:46:02.476Z,1.73
2023-01-04T04:48:29.140Z,1.76
2023-01-04T04:50:55.770Z,1.71
2023-01-04T04:53:22.391Z,1.73
2023-01-04T04:55:52.944Z,1.76
2023-01-04T04:58:19.830Z,1.71
2023-01-04T05:00:46.456Z,1.82
2023-01-04T05:03:13.263Z,1.82
2023-01-04T05:05:39.884Z,1.84
2023-01-04T05:08:06.543Z,1.91
2023-01-04T05:10:34.389Z,1.97
2023-01-04T05:13:01.005Z,1.97
2023-01-04T05:15:29.583Z,2.05
2023-01-04T05:17:56.205Z,2.00
2023-01-04T05:20:22.893Z,2.10
2023-01-04T05:22:49.478Z,2.13
2023-01-04T05:25:16.516Z,2.17
2023-01-04T05:27:43.245Z,2.23
2023-01-04T05:30:32.888Z,2.18
2023-01-04T05:32:59.570Z,2.34
2023-01-04T05:35:26.224Z,2.37
2023-01-04T05:37:53.195Z,2.46
2023-01-04T05:40:20.318Z,2.41
2023-01-04T05:42:47.277Z,2.53
2023-01-04T05:45:14.800Z,2.51
2023-01-04T05:47:41.556Z,2.56
2023-01-04T05:50:09.119Z,2.48
2023-01-04T05:52:36.127Z,2.52
2023-01-04T05:55:03.431Z,2.57
2023-01-04T05:57:30.059Z,2.59
2023-01-04T05:59:56.678Z,2.51
2023-01-04T06:02:25.826Z,2.66
2023-01-04T06:04:58.412Z,2.81
2023-01-04T06:07:25.855Z,2.80
2023-01-04T06:09:52.564Z,2.81
2023-01-04T06:12:19.197Z,2.83
2023-01-04T06:14:45.816Z,2.84
2023-01-04T06:17:12.511Z,2.98
2023-01-04T06:19:39.231Z,3.01
2023-01-04T06:22:05.927Z,3.09
2023-01-04T06:24:34.151Z,3.14
2023-01-04T06:27:01.663Z,3.04
2023-01-04T06:29:28.334Z,3.02
2023-01-04T06:31:55.259Z,3.07
2023-01-04T06:34:26.818Z,3.16
2023-01-04T06:36:57.008Z,3.33
2023-01-04T06:39:23.631Z,3.26
2023-01-04T06:41:50.293Z,3.30
2023-01-04T06:44:17.030Z,3.39
2023-01-04T06:46:43.707Z,3.39
2023-01-04T06:49:10.417Z,3.41
2023-01-04T06:51:36.985Z,3.48
2023-01-04T06:54:03.883Z,3.52
2023-01-04T06:56:32.038Z,3.58
2023-01-04T06:58:58.808Z,3.63
2023-01-04T07:01:25.698Z,3.76
2023-01-04T07:03:52.396Z,3.83
2023-01-04T07:06:19.041Z,3.91
2023-01-04T07:08:45.629Z,3.98
2023-01-04T07:11:12.227Z,4.09
2023-01-04T07:13:38.831Z,4.13
2023-01-04T07:16:05.658Z,4.13
2023-01-04T07:18:32.315Z,4.22
2023-01-04T07:20:58.963Z,4.30
2023-01-04T07:23:25.637Z,4.36
2023-01-04T07:25:52.293Z,4.38
2023-01-04T07:28:38.813Z,4.41
2023-01-04T07:31:07.414Z,4.41
2023-01-04T07:33:34.397Z,4.43
2023-01-04T07:36:05.841Z,4.42
2023-01-04T07:38:34.463Z,4.43
2023-01-04T07:41:01.100Z,4.41
2023-01-04T07:43:28.717Z,4.41
2023-01-04T07:45:55.813Z,4.45
2023-01-04T07:48:22.555Z,4.43
2023-01-04T07:50:50.213Z,4.41
2023-01-04T07:53:16.883Z,4.38
2023-01-04T07:55:43.545Z,4.46
2023-01-04T07:58:10.160Z,4.43
2023-01-04T08:00:36.967Z,4.43
2023-01-04T08:03:03.844Z,4.35
2023-01-04T08:05:34.380Z,4.32
2023-01-04T08:08:01.606Z,4.30
2023-01-04T08:10:28.626Z,4.33
2023-01-04T08:12:55.227Z,4.32
2023-01-04T08:15:21.879Z,4.39
2023-01-04T08:17:48.489Z,4.38
2023-01-04T08:20:15.143Z,4.42
2023-01-04T08:22:41.814Z,4.45
2023-01-04T08:25:08.772Z,4.41
2023-01-04T08:27:35.467Z,4.47
2023-01-04T08:30:02.297Z,4.53
2023-01-04T08:32:28.959Z,4.55
2023-01-04T08:34:55.598Z,4.55
2023-01-04T08:37:22.207Z,4.57
2023-01-04T08:39:49.948Z,4.53
2023-01-04T08:42:22.506Z,4.65
2023-01-04T08:44:59.664Z,4.65
2023-01-04T08:47:30.336Z,4.65
2023-01-04T08:49:57.537Z,4.68
2023-01-04T08:52:24.461Z,4.71
2023-01-04T08:54:51.209Z,4.74
2023-01-04T08:57:18.483Z,4.76
2023-01-04T08:59:45.190Z,4.74
2023-01-04T09:02:21.893Z,4.83
2023-01-04T09:04:49.457Z,4.81
2023-01-04T09:07:16.547Z,4.89
2023-01-04T09:09:43.541Z,4.86
2023-01-04T09:12:10.323Z,4.96
2023-01-04T09:14:36.962Z,4.99
2023-01-04T09:17:04.261Z,5.02
2023-01-04T09:19:30.888Z,5.05
2023-01-04T09:21:57.617Z,4.97
2023-01-04T09:24:24.396Z,5.06
2023-01-04T09:26:51.014Z,5.12
2023-01-04T09:29:17.720Z,5.15
2023-01-04T09:31:44.384Z,5.21
2023-01-04T09:34:16.929Z,5.22
2023-01-04T09:36:45.796Z,5.27
2023-01-04T09:39:20.935Z,5.29
2023-01-04T09:42:15.720Z,5.29
2023-01-04T09:45:22.134Z,5.29
2023-01-04T09:47:54.708Z,5.36
2023-01-04T09:50:29.474Z,5.37
2023-01-04T09:53:12.935Z,5.42
2023-01-04T09:55:43.089Z,5.51
2023-01-04T09:58:19.441Z,5.48
2023-01-04T10:01:00.053Z,5.52
2023-01-04T10:03:35.500Z,5.56
2023-01-04T10:06:03.118Z,5.61
2023-01-04T10:08:31.462Z,5.62
2023-01-04T10:11:19.493Z,5.66
2023-01-04T10:13:55.723Z,5.63
2023-01-04T10:17:11.309Z,5.69
2023-01-04T10:21:14.602Z,5.73
2023-01-04T10:22:45.907Z,5.72
2023-01-04T10:25:23.275Z,5.77
2023-01-04T10:27:53.017Z,5.82
2023-01-04T10:31:00.625Z,5.84
2023-01-04T10:34:06.721Z,5.86
2023-01-04T10:36:33.403Z,5.91
2023-01-04T10:39:13.780Z,5.95
2023-01-04T10:41:45.483Z,5.94
2023-01-04T10:44:37.876Z,5.95
2023-01-04T10:47:15.569Z,5.91
2023-01-04T10:49:53.684Z,5.98
2023-01-04T10:52:31.000Z,6.06
2023-01-04T10:55:31.918Z,6.10
2023-01-04T10:58:06.979Z,6.07
2023-01-04T11:00:55.102Z,6.12
2023-01-04T11:03:28.477Z,6.11
2023-01-04T11:06:02.679Z,6.14
2023-01-04T11:08:46.468Z,6.13
2023-01-04T11:11:20.903Z,6.15
2023-01-04T11:13:48.765Z,6.17
2023-01-04T11:16:15.396Z,6.23
2023-01-04T11:18:43.230Z,6.19
2023-01-04T11:21:13.153Z,6.21
2023-01-04T11:23:40.030Z,6.24
2023-01-04T11:26:31.555Z,6.26
2023-01-04T11:29:07.024Z,6.24
2023-01-04T11:31:44.670Z,6.29
2023-01-04T11:34:11.487Z,6.30
2023-01-04T11:36:42.678Z,6.34
2023-01-04T11:39:21.319Z,6.32
2023-01-04T11:42:02.602Z,6.34
2023-01-04T11:44:31.353Z,6.34
2023-01-04T11:47:13.850Z,6.40
2023-01-04T11:49:40.439Z,6.41
2023-01-04T11:52:30.513Z,6.45
2023-01-04T11:54:57.743Z,6.46
2023-01-04T11:57:24.360Z,6.50
2023-01-04T12:00:17.416Z,6.53
2023-01-04T12:03:01.327Z,6.56
2023-01-04T12:05:30.838Z,6.57
2023-01-04T12:07:58.719Z,6.60
2023-01-04T12:10:27.368Z,6.59
2023-01-04T12:12:55.417Z,6.57
2023-01-04T12:15:29.269Z,6.56
2023-01-04T12:18:01.690Z,6.62
2023-01-04T12:20:29.550Z,6.65
2023-01-04T12:22:56.213Z,6.62
2023-01-04T12:25:51.244Z,6.65
2023-01-04T12:28:41.827Z,6.66
2023-01-04T12:31:21.465Z,6.69
2023-01-04T12:34:00.754Z,6.70
2023-01-04T12:36:39.613Z,6.75
2023-01-04T12:39:12.375Z,6.74
2023-01-04T12:41:38.882Z,6.76
2023-01-04T12:44:36.991Z,6.83
2023-01-04T12:47:23.816Z,6.92
2023-01-04T12:49:56.457Z,6.91
2023-01-04T12:52:34.774Z,6.84
2023-01-04T12:55:31.609Z,6.97
2023-01-04T12:58:03.529Z,6.96
2023-01-04T13:00:48.408Z,7.02
2023-01-04T13:03:15.159Z,7.07
2023-01-04T13:05:57.380Z,7.14
2023-01-04T13:08:24.566Z,7.12
2023-01-04T13:10:53.298Z,7.17
2023-01-04T13:13:25.771Z,7.17
2023-01-04T13:16:09.840Z,7.17
2023-01-04T13:18:40.125Z,7.21
2023-01-04T13:21:12.897Z,7.23
2023-01-04T13:23:40.268Z,7.23
2023-01-04T13:26:31.666Z,7.22
2023-01-04T13:29:17.877Z,7.26
2023-01-04T13:31:53.698Z,7.20
2023-01-04T13:34:27.871Z,7.26
2023-01-04T13:37:12.268Z,7.28
2023-01-04T13:39:47.846Z,7.23
2023-01-04T13:42:26.931Z,7.29
2023-01-04T13:47:43.690Z,7.25
2023-01-04T13:50:29.942Z,7.31
2023-01-04T13:53:06.158Z,7.33
2023-01-04T13:55:38.217Z,7.31
2023-01-04T13:58:07.079Z,7.39
2023-01-04T14:00:44.928Z,7.41
2023-01-04T14:03:17.544Z,7.42
2023-01-04T14:05:47.452Z,7.43
2023-01-04T14:08:19.972Z,7.42
2023-01-04T14:10:46.802Z,7.44
2023-01-04T14:13:18.312Z,7.42
2023-01-04T14:15:44.947Z,7.47
2023-01-04T14:18:26.814Z,7.49
2023-01-04T14:20:53.511Z,7.49
2023-01-04T14:23:38.462Z,7.55
2023-01-04T14:26:05.061Z,7.58
2023-01-04T14:28:36.112Z,7.56
2023-01-04T14:31:03.668Z,7.60
2023-01-04T14:33:36.321Z,7.58
2023-01-04T14:36:09.339Z,7.60
2023-01-04T14:38:57.044Z,7.63
2023-01-04T14:41:33.480Z,7.58
2023-01-04T14:44:00.102Z,7.63
2023-01-04T14:46:28.814Z,7.61
2023-01-04T14:48:55.540Z,7.64
2023-01-04T14:51:33.295Z,7.66
2023-01-04T14:53:59.898Z,7.61
2023-01-04T14:56:26.498Z,7.68
2023-01-04T14:58:53.109Z,7.67
2023-01-04T15:01:19.807Z,7.67
2023-01-04T15:03:46.483Z,7.70
2023-01-04T15:06:13.105Z,7.71
2023-01-04T15:08:39.875Z,7.70
2023-01-04T15:11:06.523Z,7.71
2023-01-04T15:13:39.601Z,7.75
2023-01-04T15:16:08.032Z,7.71
2023-01-04T15:18:34.716Z,7.78
2023-01-04T15:21:03.481Z,7.82
2023-01-04T15:23:30.211Z,7.82
2023-01-04T15:25:56.815Z,7.80
2023-01-04T15:28:26.308Z,7.80
2023-01-04T15:30:53.024Z,7.81
2023-01-04T15:33:20.026Z,7.86
2023-01-04T15:35:46.883Z,7.90
2023-01-04T15:38:18.438Z,7.89
2023-01-04T15:40:45.318Z,7.90
2023-01-04T15:43:11.972Z,7.94
2023-01-04T15:45:39.521Z,7.90
2023-01-04T15:48:07.982Z,7.93
2023-01-04T15:50:36.480Z,7.91
2023-01-04T15:53:03.203Z,7.95
2023-01-04T15:55:36.266Z,7.92
2023-01-04T15:58:04.450Z,7.96
2023-01-04T16:00:32.042Z,7.95
2023-01-04T16:02:58.811Z,7.94
2023-01-04T16:05:25.484Z,7.99
2023-01-04T16:07:52.271Z,8.03
2023-01-04T16:10:19.054Z,8.01
2023-01-04T16:12:49.910Z,8.06
2023-01-04T16:15:21.827Z,8.07
2023-01-04T16:17:48.941Z,8.05
2023-01-04T16:20:17.202Z,8.05
2023-01-04T16:22:44.065Z,8.07
2023-01-04T16:25:13.977Z,8.04
2023-01-04T16:27:41.179Z,8.06
2023-01-04T16:30:12.166Z,8.04
2023-01-04T16:32:42.217Z,8.07
2023-01-04T16:35:10.008Z,8.11
2023-01-04T16:37:36.861Z,8.08
2023-01-04T16:40:06.855Z,8.09
2023-01-04T16:42:34.953Z,8.13
2023-01-04T16:45:01.574Z,8.10
2023-01-04T16:47:28.296Z,8.16
2023-01-04T16:49:55.030Z,8.12
2023-01-04T16:52:21.974Z,8.12
2023-01-04T16:54:49.372Z,8.20
2023-01-04T16:57:15.963Z,8.16
2023-01-04T16:59:42.767Z,8.12
2023-01-04T17:02:11.471Z,8.17
2023-01-04T17:04:38.270Z,8.23
2023-01-04T17:07:04.944Z,8.25
2023-01-04T17:09:31.584Z,8.29
2023-01-04T17:14:49.082Z,8.29
2023-01-04T17:17:18.744Z,8.33
2023-01-04T17:19:45.587Z,8.36
2023-01-04T17:22:12.295Z,8.39
2023-01-04T17:24:38.951Z,8.39
2023-01-04T17:27:05.648Z,8.43
2023-01-04T17:29:32.267Z,8.47
2023-01-04T17:31:59.036Z,8.42
2023-01-04T17:34:25.673Z,8.46
2023-01-04T17:36:52.242Z,8.46
2023-01-04T17:39:20.977Z,8.52
2023-01-04T17:41:47.674Z,8.48
2023-01-04T17:44:14.381Z,8.48
2023-01-04T17:46:41.012Z,8.48
2023-01-04T17:49:31.402Z,8.48
2023-01-04T17:51:57.310Z,8.48
2023-01-04T17:54:27.776Z,8.50
2023-01-04T17:56:54.461Z,8.49
2023-01-04T17:59:21.209Z,8.48
2023-01-04T18:01:47.995Z,8.51
2023-01-04T18:04:14.807Z,8.45
2023-01-04T18:06:41.401Z,8.49
2023-01-04T18:09:09.104Z,8.53
2023-01-04T18:11:36.505Z,8.52
2023-01-04T18:14:06.387Z,8.56
2023-01-04T18:16:56.683Z,8.58
2023-01-04T18:19:25.172Z,8.61
2023-01-04T18:21:51.875Z,8.62
2023-01-04T18:24:36.136Z,8.60
2023-01-04T18:27:21.375Z,8.65
2023-01-04T18:29:49.149Z,8.65
2023-01-04T18:32:16.934Z,8.65
2023-01-04T18:34:43.595Z,8.69
2023-01-04T18:37:10.212Z,8.72
2023-01-04T18:39:36.983Z,8.74
2023-01-04T18:42:03.658Z,8.74
2023-01-04T18:44:33.171Z,8.72
2023-01-04T18:47:00.373Z,8.74
2023-01-04T18:49:26.999Z,8.79
2023-01-04T18:51:53.612Z,8.82
2023-01-04T18:54:21.638Z,8.80
2023-01-04T18:56:48.741Z,8.83
2023-01-04T18:59:17.294Z,8.79
2023-01-04T19:01:45.791Z,8.81
2023-01-04T19:04:12.900Z,8.73
2023-01-04T19:06:40.502Z,8.88
2023-01-04T19:09:07.711Z,8.89
2023-01-04T19:11:35.416Z,8.84
2023-01-04T19:14:03.040Z,8.90
2023-01-04T19:16:31.210Z,8.90
2023-01-04T19:18:59.148Z,8.90
2023-01-04T19:21:25.841Z,8.92
2023-01-04T19:23:52.727Z,8.96
2023-01-04T19:26:19.909Z,8.90
2023-01-04T19:28:46.640Z,8.92
2023-01-04T19:31:14.695Z,8.87
2023-01-04T19:33:41.561Z,8.85
2023-01-04T19:36:09.901Z,8.96
2023-01-04T19:38:37.173Z,8.93
2023-01-04T19:41:05.099Z,8.92
2023-01-04T19:43:32.098Z,8.89
2023-01-04T19:45:59.018Z,8.94
2023-01-04T19:48:25.846Z,8.90
2023-01-04T19:51:24.941Z,8.94
2023-01-04T19:53:51.842Z,8.94
2023-01-04T19:56:18.438Z,8.95
2023-01-04T19:58:45.255Z,8.96
2023-01-04T20:01:16.591Z,9.00
2023-01-04T20:04:02.010Z,8.99
2023-01-04T20:06:28.774Z,9.05
2023-01-04T20:08:55.387Z,9.08
2023-01-04T20:11:22.057Z,9.05
2023-01-04T20:13:48.681Z,9.11
2023-01-04T20:16:15.335Z,9.11
2023-01-04T20:18:42.375Z,9.05
2023-01-04T20:21:10.692Z,9.08
2023-01-04T20:23:37.945Z,9.11
2023-01-04T20:26:11.154Z,9.14
2023-01-04T20:28:38.852Z,9.04
2023-01-04T20:31:07.409Z,9.01
2023-01-04T20:33:34.277Z,9.05
2023-01-04T20:36:06.052Z,9.05
2023-01-04T20:38:39.928Z,9.03
2023-01-04T20:41:07.060Z,8.94
2023-01-04T20:43:33.894Z,8.94
2023-01-04T20:46:01.834Z,8.96
2023-01-04T20:48:29.152Z,8.96
2023-01-04T20:50:56.385Z,8.87
2023-01-04T20:53:23.303Z,8.93
2023-01-04T20:55:50.080Z,8.87
2023-01-04T20:58:17.163Z,8.90
2023-01-04T21:00:46.328Z,8.91
2023-01-04T21:03:13.228Z,8.88
2023-01-04T21:05:42.219Z,8.89
2023-01-04T21:08:09.728Z,8.83
2023-01-04T21:10:40.189Z,8.92
2023-01-04T21:13:06.776Z,8.88
2023-01-04T21:15:33.546Z,8.94
2023-01-04T21:18:00.197Z,8.90
2023-01-04T21:20:27.043Z,8.91
2023-01-04T21:22:53.612Z,8.97
2023-01-04T21:25:20.308Z,8.96
2023-01-04T21:27:46.869Z,9.00
2023-01-04T21:30:13.623Z,9.03
2023-01-04T21:32:40.255Z,9.01
2023-01-04T21:35:07.569Z,9.05
2023-01-04T21:37:34.201Z,8.99
2023-01-04T21:40:00.818Z,9.01
2023-01-04T21:42:28.542Z,9.01
2023-01-04T21:44:55.155Z,9.06
2023-01-04T21:47:21.730Z,9.03
2023-01-04T21:49:51.310Z,8.98
2023-01-04T21:52:18.045Z,9.03
2023-01-04T21:54:44.833Z,9.01
2023-01-04T21:57:11.553Z,9.06
2023-01-04T21:59:38.326Z,9.11
2023-01-04T22:02:05.080Z,9.05
2023-01-04T22:04:32.377Z,9.04
2023-01-04T22:06:59.250Z,9.03
2023-01-04T22:09:25.953Z,9.01
2023-01-04T22:11:52.790Z,8.96
2023-01-04T22:14:19.494Z,8.99
2023-01-04T22:16:46.112Z,8.95
2023-01-04T22:19:15.696Z,8.90
2023-01-04T22:21:42.819Z,8.92
2023-01-04T22:24:12.444Z,8.96
2023-01-04T22:26:40.049Z,8.97
2023-01-04T22:29:06.733Z,8.92
2023-01-04T22:31:33.445Z,8.93
2023-01-04T22:34:00.134Z,8.89
2023-01-04T22:36:26.929Z,8.90
2023-01-04T22:38:55.382Z,8.90
2023-01-04T22:41:24.900Z,8.71
2023-01-04T22:44:03.404Z,8.71
2023-01-04T22:46:31.103Z,8.59
2023-01-04T22:48:59.021Z,8.49
2023-01-04T22:51:27.707Z,8.50
2023-01-04T22:54:00.146Z,8.44
2023-01-04T22:56:27.545Z,8.39
2023-01-04T22:58:55.748Z,8.35
2023-01-04T23:01:24.799Z,8.32
2023-01-04T23:03:52.073Z,8.34
2023-01-04T23:06:19.254Z,8.28
2023-01-04T23:08:54.799Z,8.22
2023-01-04T23:11:21.678Z,8.18
2023-01-04T23:13:48.433Z,8.15
2023-01-04T23:16:16.565Z,8.18
2023-01-04T23:18:43.372Z,8.21
2023-01-04T23:21:10.610Z,8.20
2023-01-04T23:23:37.289Z,8.19
2023-01-04T23:26:09.118Z,8.14
2023-01-04T23:28:37.234Z,8.12
2023-01-04T23:31:10.030Z,8.13
2023-01-04T23:33:37.206Z,8.09
2023-01-04T23:36:07.162Z,8.18
2023-01-04T23:38:33.959Z,8.18
2023-01-04T23:41:08.494Z,8.13
2023-01-04T23:43:36.841Z,8.14
2023-01-04T23:46:18.708Z,8.16
2023-01-04T23:48:45.420Z,8.12
2023-01-04T23:51:12.764Z,8.14
2023-01-04T23:53:39.933Z,8.18
2023-01-04T23:56:13.910Z,8.14
2023-01-04T23:58:40.579Z,8.23
